createdAt,value
2022-09-06T00:01:11.515Z,63.93
2022-09-06T00:03:41.837Z,63.78
2022-09-06T00:06:12.704Z,64.16
2022-09-06T00:08:41.654Z,64.17
2022-09-06T00:11:10.313Z,64.00
2022-09-06T00:13:39.373Z,64.17
2022-09-06T00:16:09.939Z,64.09
2022-09-06T00:18:38.557Z,63.83
2022-09-06T00:21:17.643Z,64.07
2022-09-06T00:23:46.144Z,64.10
2022-09-06T00:26:15.223Z,64.02
2022-09-06T00:28:44.093Z,64.30
2022-09-06T00:31:13.696Z,64.18
2022-09-06T00:33:42.304Z,63.87
2022-09-06T00:36:13.384Z,64.04
2022-09-06T00:38:43.023Z,64.14
2022-09-06T00:41:14.103Z,63.95
2022-09-06T00:43:43.584Z,64.11
2022-09-06T00:46:16.603Z,64.15
2022-09-06T00:48:46.954Z,63.87
2022-09-06T00:51:20.034Z,64.19
2022-09-06T00:53:48.605Z,63.94
2022-09-06T00:56:17.244Z,64.21
2022-09-06T00:58:46.365Z,64.05
2022-09-06T01:01:15.039Z,64.08
2022-09-06T01:03:44.256Z,64.18
2022-09-06T01:06:25.823Z,63.91
2022-09-06T01:09:06.004Z,64.01
2022-09-06T01:11:48.574Z,63.89
2022-09-06T01:14:29.903Z,63.82
2022-09-06T01:17:06.874Z,64.15
2022-09-06T01:20:01.515Z,63.94
2022-09-06T01:22:56.043Z,63.66
2022-09-06T01:25:36.963Z,64.04
2022-09-06T01:28:38.304Z,63.91
2022-09-06T01:31:19.531Z,63.93
2022-09-06T01:33:55.523Z,64.14
2022-09-06T01:36:28.446Z,63.85
2022-09-06T01:38:56.908Z,64.01
2022-09-06T01:41:25.663Z,63.99
2022-09-06T01:43:56.974Z,63.77
2022-09-06T01:46:33.771Z,63.73
2022-09-06T01:49:19.514Z,63.88
2022-09-06T01:52:03.103Z,63.79
2022-09-06T01:54:48.154Z,64.01
2022-09-06T01:57:32.874Z,63.67
2022-09-06T02:00:09.756Z,64.05
2022-09-06T02:02:50.781Z,63.97
2022-09-06T02:05:25.334Z,63.52
2022-09-06T02:07:57.945Z,63.61
2022-09-06T02:10:31.513Z,63.72
2022-09-06T02:13:03.636Z,63.96
2022-09-06T02:15:36.417Z,63.95
2022-09-06T02:18:07.963Z,64.07
2022-09-06T02:20:42.994Z,63.73
2022-09-06T02:23:13.049Z,63.92
2022-09-06T02:25:45.533Z,64.05
2022-09-06T02:28:14.406Z,63.99
2022-09-06T02:30:47.636Z,63.50
2022-09-06T02:33:21.243Z,63.70
2022-09-06T02:35:52.967Z,64.01
2022-09-06T02:38:24.014Z,63.70
2022-09-06T02:40:55.313Z,63.71
2022-09-06T02:43:23.816Z,64.00
2022-09-06T02:45:53.735Z,63.79
2022-09-06T02:48:22.696Z,64.00
2022-09-06T02:50:51.213Z,63.63
2022-09-06T02:53:19.633Z,63.76
2022-09-06T02:55:49.004Z,63.78
2022-09-06T02:58:17.868Z,63.90
2022-09-06T03:00:46.354Z,64.02
2022-09-06T03:03:16.423Z,63.47
2022-09-06T03:05:48.504Z,64.01
2022-09-06T03:08:17.384Z,63.76
2022-09-06T03:10:51.195Z,63.67
2022-09-06T03:13:19.765Z,63.90
2022-09-06T03:15:52.604Z,63.57
2022-09-06T03:18:22.588Z,64.00
2022-09-06T03:20:51.413Z,63.68
2022-09-06T03:23:19.933Z,63.49
2022-09-06T03:25:48.603Z,63.84
2022-09-06T03:28:17.714Z,63.72
2022-09-06T03:30:46.963Z,63.83
2022-09-06T03:33:16.024Z,63.86
2022-09-06T03:35:53.447Z,63.78
2022-09-06T03:38:22.703Z,63.84
2022-09-06T03:40:51.695Z,63.88
2022-09-06T03:43:21.763Z,63.61
2022-09-06T03:45:51.973Z,63.49
2022-09-06T03:48:21.803Z,63.79
2022-09-06T03:50:53.227Z,63.79
2022-09-06T03:53:22.433Z,63.54
2022-09-06T03:55:52.685Z,64.06
2022-09-06T03:58:23.148Z,64.00
2022-09-06T04:00:51.896Z,63.73
2022-09-06T04:03:20.564Z,63.54
2022-09-06T04:05:50.475Z,63.80
2022-09-06T04:08:18.884Z,63.78
2022-09-06T04:10:50.703Z,63.92
2022-09-06T04:13:19.563Z,63.92
2022-09-06T04:15:48.968Z,63.65
2022-09-06T04:18:17.654Z,63.83
2022-09-06T04:20:47.465Z,63.75
2022-09-06T04:23:17.354Z,63.68
2022-09-06T04:25:49.004Z,63.78
2022-09-06T04:28:19.084Z,63.95
2022-09-06T04:30:47.556Z,63.99
2022-09-06T04:33:15.974Z,63.78
2022-09-06T04:35:44.394Z,63.58
2022-09-06T04:38:12.815Z,63.39
2022-09-06T04:40:42.735Z,63.80
2022-09-06T04:43:11.224Z,63.91
2022-09-06T04:45:40.038Z,63.51
2022-09-06T04:48:08.705Z,63.79
2022-09-06T04:50:37.893Z,63.69
2022-09-06T04:53:06.553Z,63.76
2022-09-06T04:55:35.514Z,63.84
2022-09-06T04:58:05.713Z,63.90
2022-09-06T05:00:35.835Z,63.65
2022-09-06T05:03:04.235Z,63.82
2022-09-06T05:05:32.684Z,63.70
2022-09-06T05:08:01.144Z,63.96
2022-09-06T05:10:29.644Z,63.74
2022-09-06T05:12:58.084Z,63.42
2022-09-06T05:15:28.004Z,63.78
2022-09-06T05:18:04.245Z,63.55
2022-09-06T05:20:32.935Z,64.02
2022-09-06T05:23:01.807Z,64.16
2022-09-06T05:25:30.646Z,63.73
2022-09-06T05:27:59.124Z,63.71
2022-09-06T05:30:29.034Z,63.96
2022-09-06T05:32:57.466Z,63.52
2022-09-06T05:35:26.024Z,63.72
2022-09-06T05:37:56.174Z,63.65
2022-09-06T05:40:24.656Z,63.53
2022-09-06T05:42:53.144Z,63.88
2022-09-06T05:45:21.668Z,63.80
2022-09-06T05:47:51.544Z,63.76
2022-09-06T05:50:20.108Z,63.72
2022-09-06T05:52:48.844Z,63.67
2022-09-06T05:55:17.384Z,63.73
2022-09-06T05:57:45.864Z,63.73
2022-09-06T06:00:15.648Z,63.65
2022-09-06T06:02:46.880Z,63.51
2022-09-06T06:05:17.324Z,63.55
2022-09-06T06:07:45.836Z,63.67
2022-09-06T06:10:14.404Z,63.80
2022-09-06T06:12:43.064Z,63.66
2022-09-06T06:15:12.397Z,63.77
2022-09-06T06:17:40.914Z,63.72
2022-09-06T06:20:10.625Z,63.65
2022-09-06T06:22:40.544Z,63.38
2022-09-06T06:25:12.722Z,63.74
2022-09-06T06:27:41.194Z,63.61
2022-09-06T06:30:11.681Z,63.93
2022-09-06T06:32:41.854Z,63.77
2022-09-06T06:35:11.294Z,63.61
2022-09-06T06:37:42.604Z,63.84
2022-09-06T06:40:11.944Z,63.85
2022-09-06T06:42:40.444Z,63.87
2022-09-06T06:45:10.054Z,63.75
2022-09-06T06:47:38.516Z,63.96
2022-09-06T06:50:08.035Z,63.79
2022-09-06T06:52:36.934Z,64.05
2022-09-06T06:55:07.381Z,64.01
2022-09-06T06:57:35.905Z,63.81
2022-09-06T07:00:05.644Z,63.92
2022-09-06T07:02:35.764Z,64.10
2022-09-06T07:07:52.765Z,63.92
2022-09-06T07:10:38.053Z,64.04
2022-09-06T07:13:06.637Z,64.30
2022-09-06T07:15:35.076Z,64.28
2022-09-06T07:18:03.605Z,64.10
2022-09-06T07:26:15.764Z,64.33
2022-09-06T07:29:04.034Z,64.04
2022-09-06T07:34:22.425Z,64.26
2022-09-06T07:36:54.009Z,63.99
2022-09-06T07:39:22.698Z,64.36
2022-09-06T07:41:52.615Z,63.99
2022-09-06T07:44:21.104Z,63.95
2022-09-06T07:46:50.031Z,63.90
2022-09-06T07:49:18.554Z,64.00
2022-09-06T07:51:47.215Z,64.14
2022-09-06T07:54:31.559Z,64.22
2022-09-06T07:57:01.864Z,63.75
2022-09-06T07:59:30.575Z,64.27
2022-09-06T08:01:59.100Z,64.31
2022-09-06T08:04:27.594Z,64.37
2022-09-06T08:09:46.684Z,64.15
2022-09-06T08:12:16.685Z,63.72
2022-09-06T08:14:45.774Z,63.63
2022-09-06T08:17:14.825Z,63.54
2022-09-06T08:19:43.265Z,63.76
2022-09-06T08:22:11.695Z,63.88
2022-09-06T08:24:40.374Z,63.80
2022-09-06T08:27:09.256Z,63.56
2022-09-06T08:29:40.115Z,63.87
2022-09-06T08:32:08.694Z,63.50
2022-09-06T08:34:37.125Z,63.42
2022-09-06T08:37:05.625Z,63.31
2022-09-06T08:39:34.229Z,63.47
2022-09-06T08:42:05.484Z,63.57
2022-09-06T08:47:28.034Z,63.14
2022-09-06T08:50:02.465Z,63.30
2022-09-06T08:55:54.417Z,63.07
2022-09-06T08:58:45.974Z,63.05
2022-09-06T09:01:19.096Z,63.03
2022-09-06T09:03:49.014Z,62.89
2022-09-06T09:06:17.520Z,62.91
2022-09-06T09:08:54.024Z,63.21
2022-09-06T09:11:25.661Z,63.26
2022-09-06T09:13:59.454Z,63.09
2022-09-06T09:16:28.362Z,63.14
2022-09-06T09:19:01.704Z,62.98
2022-09-06T09:21:34.164Z,62.90
2022-09-06T09:24:06.400Z,63.19
2022-09-06T09:26:43.434Z,63.08
2022-09-06T09:29:13.887Z,63.05
2022-09-06T09:31:43.908Z,62.89
2022-09-06T09:34:15.660Z,62.87
2022-09-06T09:39:37.727Z,62.41
2022-09-06T09:42:06.724Z,62.52
2022-09-06T09:44:35.354Z,62.79
2022-09-06T09:47:24.294Z,62.83
2022-09-06T09:49:54.868Z,62.85
2022-09-06T09:52:28.014Z,62.98
2022-09-06T09:54:59.384Z,63.13
2022-09-06T09:57:29.736Z,62.52
2022-09-06T10:00:01.350Z,62.14
2022-09-06T10:02:32.755Z,62.33
2022-09-06T10:05:05.299Z,62.14
2022-09-06T10:07:34.994Z,62.17
2022-09-06T10:10:07.074Z,62.62
2022-09-06T10:12:39.044Z,62.62
2022-09-06T10:15:09.685Z,62.64
2022-09-06T10:17:40.684Z,62.76
2022-09-06T10:20:12.890Z,62.19
2022-09-06T10:22:53.444Z,62.19
2022-09-06T10:25:42.947Z,61.92
2022-09-06T10:28:31.400Z,61.94
2022-09-06T10:31:35.913Z,62.17
2022-09-06T10:34:28.654Z,62.03
2022-09-06T10:37:09.613Z,61.64
2022-09-06T10:39:48.805Z,62.14
2022-09-06T10:42:27.684Z,62.27
2022-09-06T10:45:10.693Z,61.88
2022-09-06T10:47:56.154Z,62.25
2022-09-06T10:50:32.314Z,62.42
2022-09-06T10:53:10.395Z,62.34
2022-09-06T10:55:42.400Z,62.78
2022-09-06T10:58:16.342Z,62.52
2022-09-06T11:00:48.334Z,62.76
2022-09-06T11:06:18.357Z,62.82
2022-09-06T11:08:58.520Z,62.47
2022-09-06T11:11:35.823Z,63.03
2022-09-06T11:14:11.084Z,62.72
2022-09-06T11:16:47.585Z,62.92
2022-09-06T11:19:21.746Z,62.90
2022-09-06T11:22:28.265Z,62.37
2022-09-06T11:25:27.583Z,62.75
2022-09-06T11:27:58.974Z,62.94
2022-09-06T11:30:30.009Z,62.85
2022-09-06T11:33:25.654Z,62.94
2022-09-06T11:35:54.955Z,62.73
2022-09-06T11:38:26.603Z,63.22
2022-09-06T11:41:02.503Z,62.97
2022-09-06T11:43:47.523Z,63.15
2022-09-06T11:46:58.194Z,63.00
2022-09-06T11:49:32.937Z,63.09
2022-09-06T11:52:02.004Z,62.85
2022-09-06T11:54:43.205Z,62.81
2022-09-06T11:57:17.226Z,62.95
2022-09-06T12:00:02.023Z,62.83
2022-09-06T12:02:36.612Z,63.10
2022-09-06T12:05:27.493Z,62.78
2022-09-06T12:08:34.956Z,63.30
2022-09-06T12:11:23.165Z,63.10
2022-09-06T12:14:03.413Z,63.13
2022-09-06T12:17:14.574Z,62.81
2022-09-06T12:19:47.263Z,63.37
2022-09-06T12:23:02.855Z,63.21
2022-09-06T12:25:55.015Z,63.10
2022-09-06T12:28:47.370Z,63.29
2022-09-06T12:31:26.238Z,63.46
2022-09-06T12:33:56.184Z,63.11
2022-09-06T12:36:30.541Z,63.05
2022-09-06T12:39:01.344Z,62.68
2022-09-06T12:41:32.508Z,62.45
2022-09-06T12:44:03.144Z,62.77
2022-09-06T12:46:34.162Z,63.33
2022-09-06T12:49:05.297Z,63.38
2022-09-06T12:51:34.592Z,63.21
2022-09-06T12:54:05.765Z,63.45
2022-09-06T12:56:35.714Z,62.78
2022-09-06T12:59:17.200Z,63.02
2022-09-06T13:01:54.737Z,63.05
2022-09-06T13:04:32.494Z,63.02
2022-09-06T13:07:04.474Z,62.83
2022-09-06T13:09:34.044Z,62.79
2022-09-06T13:12:08.203Z,62.51
2022-09-06T13:14:37.395Z,62.57
2022-09-06T13:17:07.326Z,62.39
2022-09-06T13:19:38.508Z,62.34
2022-09-06T13:22:11.210Z,62.46
2022-09-06T13:24:47.118Z,62.29
2022-09-06T13:27:26.834Z,61.83
2022-09-06T13:29:59.825Z,62.01
2022-09-06T13:32:30.534Z,61.57
2022-09-06T13:35:00.934Z,62.17
2022-09-06T13:37:31.744Z,61.85
2022-09-06T13:40:00.254Z,62.27
2022-09-06T13:42:31.414Z,62.16
2022-09-06T13:45:02.329Z,62.28
2022-09-06T13:47:32.424Z,61.84
2022-09-06T13:50:00.945Z,61.81
2022-09-06T13:52:29.483Z,62.78
2022-09-06T13:55:00.786Z,61.97
2022-09-06T13:57:29.254Z,62.20
2022-09-06T13:59:57.744Z,61.60
2022-09-06T14:02:26.331Z,62.23
2022-09-06T14:04:57.164Z,62.14
2022-09-06T14:07:25.964Z,61.90
2022-09-06T14:09:54.954Z,61.92
2022-09-06T14:12:23.475Z,62.29
2022-09-06T14:14:52.045Z,62.30
2022-09-06T14:17:20.504Z,61.82
2022-09-06T14:19:50.476Z,61.55
2022-09-06T14:22:20.444Z,61.91
2022-09-06T14:24:49.735Z,61.67
2022-09-06T14:27:18.764Z,61.58
2022-09-06T14:29:47.294Z,62.05
2022-09-06T14:32:19.252Z,61.77
2022-09-06T14:34:50.315Z,61.99
2022-09-06T14:37:21.844Z,61.61
2022-09-06T14:39:50.631Z,61.94
2022-09-06T14:42:19.094Z,61.67
2022-09-06T14:44:47.634Z,61.51
2022-09-06T14:47:16.794Z,61.72
2022-09-06T14:49:45.275Z,62.57
2022-09-06T14:52:13.844Z,62.49
2022-09-06T14:54:43.836Z,62.66
2022-09-06T14:57:12.394Z,62.34
2022-09-06T14:59:41.478Z,62.22
2022-09-06T15:02:09.989Z,61.81
2022-09-06T15:04:38.525Z,62.94
2022-09-06T15:07:08.874Z,63.17
2022-09-06T15:09:37.664Z,63.18
2022-09-06T15:12:07.794Z,63.62
2022-09-06T15:14:37.694Z,63.38
2022-09-06T15:17:09.115Z,63.61
2022-09-06T15:19:38.375Z,63.34
2022-09-06T15:22:09.664Z,63.03
2022-09-06T15:24:38.805Z,63.42
2022-09-06T15:27:08.734Z,63.30
2022-09-06T15:29:37.235Z,63.03
2022-09-06T15:32:05.895Z,62.90
2022-09-06T15:34:35.444Z,63.19
2022-09-06T15:37:03.875Z,63.21
2022-09-06T15:39:32.425Z,63.16
2022-09-06T15:42:00.997Z,63.21
2022-09-06T15:44:33.385Z,63.41
2022-09-06T15:47:02.044Z,63.20
2022-09-06T15:49:32.202Z,63.32
2022-09-06T15:52:02.567Z,63.12
2022-09-06T15:54:48.358Z,63.43
2022-09-06T15:57:18.544Z,63.28
2022-09-06T15:59:48.514Z,63.66
2022-09-06T16:02:18.541Z,63.39
2022-09-06T16:04:47.754Z,63.60
2022-09-06T16:07:16.331Z,63.22
2022-09-06T16:09:45.624Z,63.37
2022-09-06T16:12:14.544Z,63.23
2022-09-06T16:14:43.119Z,63.69
2022-09-06T16:17:13.260Z,63.49
2022-09-06T16:19:41.844Z,63.24
2022-09-06T16:22:10.364Z,63.04
2022-09-06T16:24:38.895Z,63.04
2022-09-06T16:27:07.495Z,63.74
2022-09-06T16:29:35.904Z,62.91
2022-09-06T16:32:04.885Z,63.48
2022-09-06T16:34:34.966Z,63.30
2022-09-06T16:37:08.084Z,63.05
2022-09-06T16:39:37.139Z,63.09
2022-09-06T16:42:06.005Z,63.16
2022-09-06T16:44:34.524Z,62.96
2022-09-06T16:47:04.294Z,63.17
2022-09-06T16:49:32.734Z,63.52
2022-09-06T16:52:02.656Z,63.00
2022-09-06T16:54:31.466Z,63.29
2022-09-06T16:56:59.947Z,63.07
2022-09-06T16:59:28.484Z,62.75
2022-09-06T17:01:57.203Z,62.49
2022-09-06T17:04:25.954Z,62.82
2022-09-06T17:06:54.494Z,62.33
2022-09-06T17:09:24.404Z,62.74
2022-09-06T17:11:52.964Z,62.74
2022-09-06T17:14:21.434Z,62.63
2022-09-06T17:17:07.330Z,63.27
2022-09-06T17:19:36.784Z,63.42
2022-09-06T17:22:05.987Z,62.82
2022-09-06T17:24:38.934Z,61.21
2022-09-06T17:27:07.876Z,56.18
2022-09-06T17:29:36.375Z,57.05
2022-09-06T17:32:10.376Z,50.79
2022-09-06T17:34:40.405Z,46.98
2022-09-06T17:37:09.486Z,45.55
2022-09-06T17:39:40.721Z,43.43
2022-09-06T17:42:09.364Z,42.60
2022-09-06T17:44:37.884Z,42.19
2022-09-06T17:47:14.457Z,42.47
2022-09-06T17:49:43.494Z,42.48
2022-09-06T17:52:12.336Z,44.16
2022-09-06T17:54:42.307Z,47.50
2022-09-06T17:57:10.926Z,52.52
2022-09-06T17:59:39.735Z,54.90
2022-09-06T18:02:09.045Z,56.48
2022-09-06T18:04:37.594Z,57.14
2022-09-06T18:07:06.214Z,57.87
2022-09-06T18:09:34.645Z,57.87
2022-09-06T18:12:05.126Z,58.64
2022-09-06T18:14:33.717Z,58.89
2022-09-06T18:17:02.124Z,58.82
2022-09-06T18:19:30.724Z,58.97
2022-09-06T18:21:59.285Z,59.54
2022-09-06T18:24:27.914Z,59.46
2022-09-06T18:26:56.425Z,59.59
2022-09-06T18:29:26.553Z,59.67
2022-09-06T18:31:55.283Z,59.97
2022-09-06T18:34:23.816Z,60.10
2022-09-06T18:36:52.635Z,60.03
2022-09-06T18:39:21.095Z,60.51
2022-09-06T18:42:01.558Z,60.46
2022-09-06T18:44:33.229Z,60.64
2022-09-06T18:47:03.536Z,60.93
2022-09-06T18:49:32.734Z,60.56
2022-09-06T18:52:01.826Z,60.82
2022-09-06T18:54:30.845Z,60.92
2022-09-06T18:56:59.584Z,61.23
2022-09-06T18:59:28.204Z,61.09
2022-09-06T19:01:58.532Z,61.04
2022-09-06T19:04:27.047Z,61.17
2022-09-06T19:06:55.526Z,61.43
2022-09-06T19:09:24.425Z,61.16
2022-09-06T19:11:53.375Z,61.17
2022-09-06T19:14:22.114Z,61.34
2022-09-06T19:16:51.956Z,61.38
2022-09-06T19:19:23.410Z,62.32
2022-09-06T19:21:52.526Z,62.35
2022-09-06T19:24:24.775Z,62.21
2022-09-06T19:26:55.446Z,62.60
2022-09-06T19:29:23.944Z,62.47
2022-09-06T19:31:55.321Z,62.04
2022-09-06T19:34:55.686Z,62.29
2022-09-06T19:37:38.124Z,62.50
2022-09-06T19:40:07.721Z,61.82
2022-09-06T19:42:36.254Z,62.50
2022-09-06T19:45:04.924Z,62.36
2022-09-06T19:47:33.354Z,62.57
2022-09-06T19:50:03.764Z,62.53
2022-09-06T19:52:32.204Z,62.81
2022-09-06T19:55:00.604Z,62.76
2022-09-06T19:57:29.236Z,63.27
2022-09-06T19:59:57.746Z,62.99
2022-09-06T20:02:26.486Z,62.85
2022-09-06T20:04:55.862Z,62.54
2022-09-06T20:07:27.424Z,63.12
2022-09-06T20:09:56.440Z,63.22
2022-09-06T20:12:25.074Z,63.21
2022-09-06T20:14:53.924Z,63.71
2022-09-06T20:17:33.692Z,63.37
2022-09-06T20:20:03.146Z,62.58
2022-09-06T20:22:38.456Z,63.07
2022-09-06T20:25:08.896Z,63.20
2022-09-06T20:27:42.512Z,63.31
2022-09-06T20:30:13.844Z,63.13
2022-09-06T20:32:42.604Z,63.34
2022-09-06T20:35:11.427Z,63.72
2022-09-06T20:37:42.284Z,63.52
2022-09-06T20:40:13.212Z,63.12
2022-09-06T20:42:42.714Z,62.96
2022-09-06T20:45:12.039Z,62.86
2022-09-06T20:47:40.575Z,63.33
2022-09-06T20:50:09.664Z,63.30
2022-09-06T20:52:38.125Z,63.58
2022-09-06T20:55:09.557Z,62.78
2022-09-06T20:57:37.985Z,63.44
2022-09-06T21:00:10.268Z,62.92
2022-09-06T21:02:40.935Z,62.84
2022-09-06T21:05:10.617Z,63.63
2022-09-06T21:07:39.735Z,63.67
2022-09-06T21:10:10.204Z,63.63
2022-09-06T21:12:39.724Z,63.34
2022-09-06T21:15:08.734Z,63.65
2022-09-06T21:17:40.135Z,63.69
2022-09-06T21:20:09.834Z,63.45
2022-09-06T21:22:38.280Z,63.80
2022-09-06T21:25:09.606Z,63.74
2022-09-06T21:27:40.876Z,63.67
2022-09-06T21:30:11.126Z,63.83
2022-09-06T21:32:40.045Z,64.05
2022-09-06T21:35:09.107Z,63.35
2022-09-06T21:37:39.055Z,63.63
2022-09-06T21:40:10.824Z,63.31
2022-09-06T21:42:44.065Z,63.77
2022-09-06T21:45:15.819Z,64.16
2022-09-06T21:47:44.755Z,63.64
2022-09-06T21:50:14.337Z,63.78
2022-09-06T21:52:45.705Z,63.86
2022-09-06T21:55:19.295Z,63.69
2022-09-06T21:57:49.155Z,63.88
2022-09-06T22:00:18.650Z,64.12
2022-09-06T22:02:47.905Z,63.92
2022-09-06T22:05:16.946Z,63.89
2022-09-06T22:07:46.034Z,63.56
2022-09-06T22:10:16.335Z,64.10
2022-09-06T22:12:45.165Z,64.46
2022-09-06T22:15:13.915Z,63.71
2022-09-06T22:17:45.115Z,64.02
2022-09-06T22:20:13.565Z,64.22
2022-09-06T22:22:44.425Z,64.07
2022-09-06T22:25:13.175Z,63.65
2022-09-06T22:27:44.125Z,63.81
2022-09-06T22:30:13.805Z,64.03
2022-09-06T22:32:43.404Z,63.88
2022-09-06T22:35:12.006Z,63.71
2022-09-06T22:37:40.727Z,64.31
2022-09-06T22:40:10.619Z,63.74
2022-09-06T22:42:39.155Z,63.66
2022-09-06T22:45:10.285Z,63.97
2022-09-06T22:47:38.735Z,64.36
2022-09-06T22:50:08.605Z,63.86
2022-09-06T22:52:37.075Z,64.23
2022-09-06T22:55:05.896Z,63.64
2022-09-06T22:57:34.609Z,64.29
2022-09-06T23:00:03.534Z,63.97
2022-09-06T23:02:34.666Z,63.99
2022-09-06T23:05:03.292Z,64.37
2022-09-06T23:07:31.765Z,64.03
2022-09-06T23:10:01.877Z,64.44
2022-09-06T23:12:30.475Z,64.22
2022-09-06T23:14:58.955Z,64.41
2022-09-06T23:17:27.404Z,64.23
2022-09-06T23:19:57.416Z,64.17
2022-09-06T23:22:25.945Z,64.43
2022-09-06T23:24:54.427Z,64.32
2022-09-06T23:27:22.964Z,64.29
2022-09-06T23:29:52.974Z,64.53
2022-09-06T23:32:21.655Z,64.25
2022-09-06T23:34:50.115Z,64.60
2022-09-06T23:37:20.084Z,64.52
2022-09-06T23:39:48.615Z,64.17
2022-09-06T23:42:17.215Z,64.36
2022-09-06T23:44:45.694Z,64.32
2022-09-06T23:47:14.604Z,64.63
2022-09-06T23:49:45.395Z,64.43
2022-09-06T23:52:13.975Z,64.71
2022-09-06T23:54:43.984Z,64.75
2022-09-06T23:57:12.455Z,64.57
2022-09-06T23:59:40.875Z,64.39
